createdAt,value
2023-04-25T00:00:28.206Z,13.58
2023-04-25T00:03:20.922Z,13.59
2023-04-25T00:05:53.794Z,13.48
2023-04-25T00:08:27.037Z,13.56
2023-04-25T00:10:59.357Z,13.59
2023-04-25T00:13:31.798Z,13.56
2023-04-25T00:16:05.380Z,13.55
2023-04-25T00:18:37.582Z,13.42
2023-04-25T00:21:09.959Z,13.32
2023-04-25T00:23:42.007Z,13.35
2023-04-25T00:26:14.364Z,13.22
2023-04-25T00:28:46.550Z,13.15
2023-04-25T00:31:18.875Z,13.15
2023-04-25T00:33:51.955Z,13.16
2023-04-25T00:36:24.569Z,13.21
2023-04-25T00:38:58.057Z,13.24
2023-04-25T00:41:31.303Z,13.21
2023-04-25T00:44:05.344Z,13.15
2023-04-25T00:46:38.717Z,13.05
2023-04-25T00:49:16.509Z,12.87
2023-04-25T00:51:48.874Z,12.81
2023-04-25T00:54:21.289Z,12.62
2023-04-25T00:56:53.645Z,12.52
2023-04-25T00:59:26.308Z,12.50
2023-04-25T01:01:59.133Z,12.53
2023-04-25T01:04:32.600Z,12.56
2023-04-25T01:07:04.851Z,12.42
2023-04-25T01:09:37.359Z,12.35
2023-04-25T01:12:10.184Z,12.47
2023-04-25T01:14:42.452Z,12.60
2023-04-25T01:17:15.982Z,12.55
2023-04-25T01:19:49.971Z,12.47
2023-04-25T01:22:22.954Z,12.28
2023-04-25T01:24:57.668Z,12.15
2023-04-25T01:27:30.836Z,12.07
2023-04-25T01:30:03.497Z,12.20
2023-04-25T01:32:40.238Z,12.05
2023-04-25T01:35:14.391Z,11.98
2023-04-25T01:37:46.829Z,12.16
2023-04-25T01:40:19.898Z,12.34
2023-04-25T01:42:52.761Z,12.35
2023-04-25T01:45:26.244Z,12.36
2023-04-25T01:48:00.625Z,12.17
2023-04-25T01:50:33.249Z,11.93
2023-04-25T01:53:06.227Z,11.76
2023-04-25T01:55:38.428Z,11.62
2023-04-25T01:58:14.072Z,11.66
2023-04-25T02:01:09.183Z,11.56
2023-04-25T02:03:47.154Z,11.53
2023-04-25T02:06:37.802Z,11.58
2023-04-25T02:09:10.149Z,11.62
2023-04-25T02:11:47.719Z,11.61
2023-04-25T02:14:41.283Z,11.66
2023-04-25T02:17:32.851Z,11.62
2023-04-25T02:20:06.135Z,11.37
2023-04-25T02:22:38.689Z,11.71
2023-04-25T02:25:13.915Z,11.76
2023-04-25T02:27:46.765Z,11.85
2023-04-25T02:30:19.400Z,12.01
2023-04-25T02:32:51.810Z,11.84
2023-04-25T02:35:24.718Z,11.91
2023-04-25T02:37:59.969Z,11.82
2023-04-25T02:40:32.392Z,11.88
2023-04-25T02:43:05.021Z,11.85
2023-04-25T02:45:37.360Z,11.59
2023-04-25T02:48:10.002Z,11.51
2023-04-25T02:50:42.255Z,11.66
2023-04-25T02:53:14.619Z,11.48
2023-04-25T02:55:51.161Z,11.34
2023-04-25T02:58:23.706Z,11.18
2023-04-25T03:00:57.714Z,11.19
2023-04-25T03:03:30.157Z,11.19
2023-04-25T03:06:02.772Z,11.33
2023-04-25T03:08:37.819Z,11.46
2023-04-25T03:11:10.075Z,11.52
2023-04-25T03:13:42.471Z,11.60
2023-04-25T03:16:15.403Z,11.64
2023-04-25T03:18:47.837Z,11.59
2023-04-25T03:21:20.448Z,11.42
2023-04-25T03:23:52.926Z,11.42
2023-04-25T03:26:25.506Z,11.29
2023-04-25T03:28:57.752Z,11.08
2023-04-25T03:31:30.673Z,11.25
2023-04-25T03:34:03.083Z,11.40
2023-04-25T03:36:35.385Z,11.36
2023-04-25T03:39:08.737Z,11.36
2023-04-25T03:41:42.477Z,11.05
2023-04-25T03:44:18.626Z,11.09
2023-04-25T03:46:51.347Z,10.98
2023-04-25T03:49:23.956Z,10.83
2023-04-25T03:52:09.187Z,11.00
2023-04-25T03:54:44.464Z,10.98
2023-04-25T03:57:20.035Z,11.09
2023-04-25T03:59:52.446Z,10.94
2023-04-25T04:02:24.920Z,10.61
2023-04-25T04:04:59.389Z,10.90
2023-04-25T04:07:34.043Z,10.95
2023-04-25T04:10:09.304Z,11.08
2023-04-25T04:12:43.292Z,10.80
2023-04-25T04:15:16.031Z,10.86
2023-04-25T04:17:50.273Z,10.95
2023-04-25T04:20:24.232Z,10.87
2023-04-25T04:22:56.615Z,10.80
2023-04-25T04:25:29.814Z,10.56
2023-04-25T04:28:08.253Z,10.82
2023-04-25T04:30:48.114Z,10.72
2023-04-25T04:33:21.143Z,10.77
2023-04-25T04:35:58.647Z,10.81
2023-04-25T04:38:31.573Z,10.68
2023-04-25T04:41:07.631Z,10.63
2023-04-25T04:43:57.030Z,10.70
2023-04-25T04:46:55.587Z,10.77
2023-04-25T04:49:38.816Z,10.71
2023-04-25T04:52:31.466Z,10.56
2023-04-25T04:55:29.466Z,10.79
2023-04-25T04:58:18.713Z,10.79
2023-04-25T05:01:01.306Z,10.81
2023-04-25T05:04:02.154Z,11.03
2023-04-25T05:07:07.048Z,11.11
2023-04-25T05:09:54.225Z,11.09
2023-04-25T05:12:59.162Z,11.14
2023-04-25T05:15:47.993Z,10.91
2023-04-25T05:18:38.642Z,11.07
2023-04-25T05:21:17.474Z,11.26
2023-04-25T05:24:08.867Z,11.36
2023-04-25T05:26:59.605Z,11.41
2023-04-25T05:29:34.652Z,11.59
2023-04-25T05:32:39.162Z,11.37
2023-04-25T05:35:12.654Z,11.44
2023-04-25T05:37:49.919Z,11.72
2023-04-25T05:40:23.066Z,11.55
2023-04-25T05:43:14.921Z,11.44
2023-04-25T05:45:56.891Z,11.50
2023-04-25T05:48:36.633Z,11.65
2023-04-25T05:51:20.664Z,11.99
2023-04-25T05:54:07.273Z,12.03
2023-04-25T05:56:40.863Z,12.19
2023-04-25T05:59:13.361Z,12.35
2023-04-25T06:01:45.742Z,12.39
2023-04-25T06:04:18.589Z,12.30
2023-04-25T06:06:51.186Z,12.33
2023-04-25T06:09:23.499Z,12.24
2023-04-25T06:11:56.287Z,12.32
2023-04-25T06:14:29.777Z,12.19
2023-04-25T06:17:07.298Z,12.27
2023-04-25T06:19:39.690Z,12.42
2023-04-25T06:22:12.151Z,12.43
2023-04-25T06:24:46.965Z,12.32
2023-04-25T06:27:19.176Z,12.12
2023-04-25T06:29:52.247Z,12.29
2023-04-25T06:32:24.475Z,12.40
2023-04-25T06:34:56.783Z,12.49
2023-04-25T06:37:28.937Z,12.58
2023-04-25T06:40:01.750Z,12.67
2023-04-25T06:42:35.744Z,12.72
2023-04-25T06:45:28.190Z,12.72
2023-04-25T06:48:00.809Z,12.74
2023-04-25T06:50:34.059Z,12.68
2023-04-25T06:53:06.341Z,12.69
2023-04-25T06:55:38.927Z,12.74
2023-04-25T06:58:21.349Z,12.61
2023-04-25T07:00:59.852Z,12.60
2023-04-25T07:03:32.442Z,12.54
2023-04-25T07:06:08.615Z,12.71
2023-04-25T07:08:40.968Z,12.78
2023-04-25T07:11:13.206Z,12.87
2023-04-25T07:13:46.196Z,13.02
2023-04-25T07:16:19.038Z,12.96
2023-04-25T07:18:52.858Z,13.08
2023-04-25T07:21:25.326Z,13.14
2023-04-25T07:23:57.985Z,13.04
2023-04-25T07:26:34.461Z,12.91
2023-04-25T07:29:41.667Z,12.79
2023-04-25T07:32:15.263Z,12.75
2023-04-25T07:34:48.571Z,13.04
2023-04-25T07:37:20.964Z,13.16
2023-04-25T07:40:06.307Z,13.07
2023-04-25T07:42:38.696Z,12.92
2023-04-25T07:45:12.878Z,13.17
2023-04-25T07:47:45.706Z,13.29
2023-04-25T07:50:18.172Z,13.48
2023-04-25T07:52:50.443Z,13.55
2023-04-25T07:55:33.454Z,13.65
2023-04-25T07:58:22.350Z,13.58
2023-04-25T08:00:57.314Z,13.71
2023-04-25T08:03:50.455Z,13.58
2023-04-25T08:06:28.488Z,13.63
2023-04-25T08:09:21.507Z,13.57
2023-04-25T08:11:53.830Z,13.68
2023-04-25T08:14:30.135Z,13.66
2023-04-25T08:17:02.592Z,13.80
2023-04-25T08:19:35.500Z,13.85
2023-04-25T08:22:08.690Z,13.63
2023-04-25T08:24:49.223Z,13.79
2023-04-25T08:27:23.044Z,13.83
2023-04-25T08:29:55.627Z,13.90
2023-04-25T08:32:29.664Z,13.97
2023-04-25T08:35:14.867Z,14.13
2023-04-25T08:37:50.192Z,14.02
2023-04-25T08:40:27.211Z,14.21
2023-04-25T08:43:12.408Z,14.35
2023-04-25T08:45:46.182Z,14.33
2023-04-25T08:48:39.029Z,14.38
2023-04-25T08:51:12.611Z,14.26
2023-04-25T08:53:47.254Z,14.33
2023-04-25T08:56:24.306Z,14.31
2023-04-25T08:58:57.288Z,14.48
2023-04-25T09:01:30.149Z,14.39
2023-04-25T09:04:03.467Z,14.40
2023-04-25T09:06:37.016Z,14.32
2023-04-25T09:09:12.099Z,14.23
2023-04-25T09:11:45.572Z,14.13
2023-04-25T09:14:21.588Z,14.23
2023-04-25T09:17:13.464Z,14.30
2023-04-25T09:19:52.991Z,14.19
2023-04-25T09:22:33.114Z,14.20
2023-04-25T09:25:11.372Z,14.31
2023-04-25T09:27:55.523Z,14.41
2023-04-25T09:30:36.387Z,14.38
2023-04-25T09:33:33.857Z,14.27
2023-04-25T09:36:08.809Z,14.26
2023-04-25T09:39:02.613Z,14.19
2023-04-25T09:41:43.184Z,14.26
2023-04-25T09:44:16.315Z,14.12
2023-04-25T09:46:54.723Z,14.05
2023-04-25T09:49:30.759Z,14.09
2023-04-25T09:52:19.672Z,14.06
2023-04-25T09:55:18.629Z,14.14
2023-04-25T09:57:55.086Z,14.20
2023-04-25T10:00:28.559Z,14.24
2023-04-25T10:03:03.020Z,14.16
2023-04-25T10:05:56.070Z,14.08
2023-04-25T10:08:32.813Z,14.06
2023-04-25T10:11:06.834Z,14.07
2023-04-25T10:13:39.281Z,14.02
2023-04-25T10:16:12.910Z,14.00
2023-04-25T10:18:45.164Z,14.12
2023-04-25T10:21:20.100Z,14.15
2023-04-25T10:23:53.704Z,14.26
2023-04-25T10:26:27.689Z,14.24
2023-04-25T10:29:02.020Z,14.19
2023-04-25T10:31:35.933Z,14.34
2023-04-25T10:34:08.542Z,14.46
2023-04-25T10:36:41.071Z,14.45
2023-04-25T10:39:13.199Z,14.43
2023-04-25T10:41:58.459Z,14.36
2023-04-25T10:44:30.458Z,14.31
2023-04-25T10:47:06.814Z,14.28
2023-04-25T10:49:43.425Z,14.24
2023-04-25T10:52:20.276Z,14.27
2023-04-25T10:54:53.857Z,14.25
2023-04-25T10:57:34.619Z,14.36
2023-04-25T11:00:13.363Z,14.44
2023-04-25T11:02:50.509Z,14.52
2023-04-25T11:05:33.172Z,14.45
2023-04-25T11:08:15.101Z,14.50
2023-04-25T11:10:50.930Z,14.38
2023-04-25T11:13:31.171Z,14.58
2023-04-25T11:16:12.313Z,14.75
2023-04-25T11:18:46.549Z,14.86
2023-04-25T11:21:19.810Z,14.84
2023-04-25T11:23:52.387Z,14.87
2023-04-25T11:26:26.446Z,14.89
2023-04-25T11:29:03.387Z,14.77
2023-04-25T11:31:35.982Z,14.70
2023-04-25T11:34:08.548Z,14.77
2023-04-25T11:36:41.652Z,14.62
2023-04-25T11:39:14.489Z,14.66
2023-04-25T11:41:46.913Z,14.56
2023-04-25T11:44:21.105Z,14.47
2023-04-25T11:46:53.181Z,14.39
2023-04-25T11:49:26.056Z,14.36
2023-04-25T11:51:58.241Z,14.05
2023-04-25T11:54:30.704Z,14.03
2023-04-25T11:57:02.999Z,13.94
2023-04-25T11:59:36.035Z,13.83
2023-04-25T12:02:08.620Z,13.91
2023-04-25T12:04:43.482Z,13.66
2023-04-25T12:07:16.545Z,13.55
2023-04-25T12:09:55.375Z,13.69
2023-04-25T12:12:34.174Z,13.80
2023-04-25T12:15:20.395Z,13.91
2023-04-25T12:17:55.259Z,13.93
2023-04-25T12:20:26.919Z,14.12
2023-04-25T12:23:01.314Z,14.28
2023-04-25T12:25:42.218Z,14.44
2023-04-25T12:28:14.157Z,14.38
2023-04-25T12:31:00.047Z,14.41
2023-04-25T12:33:31.305Z,14.23
2023-04-25T12:36:06.383Z,14.32
2023-04-25T12:38:38.333Z,14.34
2023-04-25T12:41:09.300Z,14.19
2023-04-25T12:43:40.062Z,14.13
2023-04-25T12:46:11.038Z,13.88
2023-04-25T12:48:41.887Z,13.94
2023-04-25T12:51:12.915Z,13.78
2023-04-25T12:53:43.908Z,13.78
2023-04-25T12:56:14.901Z,13.89
2023-04-25T12:58:46.028Z,14.03
2023-04-25T13:01:17.027Z,14.09
2023-04-25T13:03:48.149Z,14.14
2023-04-25T13:06:19.757Z,14.26
2023-04-25T13:08:51.040Z,14.24
2023-04-25T13:11:22.210Z,14.24
2023-04-25T13:13:53.469Z,14.25
2023-04-25T13:16:24.470Z,14.24
2023-04-25T13:18:57.173Z,14.35
2023-04-25T13:21:28.209Z,14.36
2023-04-25T13:23:59.017Z,14.31
2023-04-25T13:26:29.821Z,14.25
2023-04-25T13:29:01.616Z,14.27
2023-04-25T13:31:33.519Z,14.12
2023-04-25T13:34:04.737Z,14.06
2023-04-25T13:36:35.475Z,14.14
2023-04-25T13:39:06.799Z,14.13
2023-04-25T13:41:37.925Z,14.18
2023-04-25T13:44:08.721Z,14.23
2023-04-25T13:46:47.025Z,14.13
2023-04-25T13:49:18.925Z,14.16
2023-04-25T13:51:50.112Z,14.16
2023-04-25T13:54:20.931Z,14.12
2023-04-25T13:56:53.031Z,14.11
2023-04-25T13:59:23.781Z,14.19
2023-04-25T14:01:55.035Z,14.33
2023-04-25T14:04:26.326Z,14.35
2023-04-25T14:06:57.513Z,14.53
2023-04-25T14:09:28.403Z,14.71
2023-04-25T14:11:59.252Z,14.89
2023-04-25T14:14:30.289Z,15.03
2023-04-25T14:17:01.278Z,15.10
2023-04-25T14:19:32.041Z,15.09
2023-04-25T14:22:02.817Z,14.92
2023-04-25T14:24:33.452Z,14.92
2023-04-25T14:27:04.102Z,14.71
2023-04-25T14:29:35.221Z,14.31
2023-04-25T14:32:06.767Z,14.06
2023-04-25T14:34:37.489Z,14.02
2023-04-25T14:37:08.063Z,13.79
2023-04-25T14:39:38.927Z,13.83
2023-04-25T14:42:09.719Z,13.87
2023-04-25T14:44:40.645Z,13.98
2023-04-25T14:47:11.563Z,13.93
2023-04-25T14:49:42.416Z,13.83
2023-04-25T14:52:13.027Z,13.92
2023-04-25T14:54:43.618Z,13.89
2023-04-25T14:57:14.373Z,13.75
2023-04-25T14:59:45.270Z,13.82
2023-04-25T15:02:16.284Z,13.77
2023-04-25T15:04:47.032Z,13.64
2023-04-25T15:07:18.762Z,13.72
2023-04-25T15:09:49.462Z,13.84
2023-04-25T15:12:20.298Z,13.68
2023-04-25T15:14:50.976Z,13.69
2023-04-25T15:17:21.633Z,13.61
2023-04-25T15:21:01.023Z,13.76
2023-04-25T15:23:33.716Z,13.64
2023-04-25T15:26:06.124Z,13.60
2023-04-25T15:28:38.599Z,13.63
2023-04-25T15:31:11.653Z,13.62
2023-04-25T15:33:44.781Z,13.54
2023-04-25T15:36:17.423Z,13.47
2023-04-25T15:38:49.665Z,13.37
2023-04-25T15:41:22.482Z,13.40
2023-04-25T15:43:56.387Z,13.38
2023-04-25T15:46:29.134Z,13.41
2023-04-25T15:49:01.645Z,13.38
2023-04-25T15:51:34.784Z,13.25
2023-04-25T15:54:08.310Z,13.40
2023-04-25T15:56:40.959Z,13.36
2023-04-25T15:59:13.293Z,13.39
2023-04-25T16:01:46.052Z,13.37
2023-04-25T16:04:18.822Z,13.43
2023-04-25T16:06:51.638Z,13.39
2023-04-25T16:09:23.759Z,13.35
2023-04-25T16:11:57.378Z,13.30
2023-04-25T16:14:30.349Z,13.17
2023-04-25T16:17:03.128Z,13.16
2023-04-25T16:19:35.868Z,13.15
2023-04-25T16:22:09.629Z,13.17
2023-04-25T16:24:42.385Z,13.26
2023-04-25T16:27:15.228Z,13.28
2023-04-25T16:29:49.584Z,13.32
2023-04-25T16:32:22.447Z,13.28
2023-04-25T16:34:56.969Z,13.18
2023-04-25T16:37:31.405Z,13.13
2023-04-25T16:40:03.996Z,13.21
2023-04-25T16:42:36.911Z,13.13
2023-04-25T16:45:11.150Z,13.09
2023-04-25T16:47:43.724Z,13.25
2023-04-25T16:50:17.232Z,13.19
2023-04-25T16:52:49.998Z,13.18
2023-04-25T16:55:22.799Z,13.09
2023-04-25T16:57:55.257Z,13.16
2023-04-25T17:00:27.927Z,13.10
2023-04-25T17:03:00.885Z,13.00
2023-04-25T17:05:34.104Z,12.94
2023-04-25T17:08:06.799Z,12.95
2023-04-25T17:10:39.333Z,12.92
2023-04-25T17:13:11.688Z,12.88
2023-04-25T17:15:44.325Z,12.81
2023-04-25T17:18:17.304Z,12.67
2023-04-25T17:20:50.217Z,12.64
2023-04-25T17:23:22.784Z,12.71
2023-04-25T17:25:55.017Z,12.76
2023-04-25T17:28:27.908Z,12.77
2023-04-25T17:31:01.348Z,12.77
2023-04-25T17:33:34.436Z,12.66
2023-04-25T17:36:08.657Z,12.53
2023-04-25T17:38:41.325Z,12.45
2023-04-25T17:41:15.173Z,12.58
2023-04-25T17:43:47.287Z,12.54
2023-04-25T17:46:20.186Z,12.54
2023-04-25T17:48:52.935Z,12.40
2023-04-25T17:51:26.505Z,12.30
2023-04-25T17:53:58.970Z,12.25
2023-04-25T17:56:31.986Z,12.26
2023-04-25T17:59:04.817Z,12.38
2023-04-25T18:01:38.182Z,12.40
2023-04-25T18:04:11.058Z,12.31
2023-04-25T18:06:44.374Z,12.20
2023-04-25T18:09:23.316Z,12.26
2023-04-25T18:11:56.696Z,12.28
2023-04-25T18:14:29.781Z,12.19
2023-04-25T18:17:03.700Z,12.18
2023-04-25T18:19:36.023Z,11.97
2023-04-25T18:22:08.484Z,12.02
2023-04-25T18:24:40.979Z,12.05
2023-04-25T18:27:13.782Z,12.06
2023-04-25T18:29:45.817Z,12.01
2023-04-25T18:32:19.037Z,11.93
2023-04-25T18:34:51.477Z,11.92
2023-04-25T18:37:24.756Z,11.91
2023-04-25T18:39:57.006Z,11.81
2023-04-25T18:42:29.766Z,11.86
2023-04-25T18:45:02.336Z,11.84
2023-04-25T18:47:34.820Z,11.88
2023-04-25T18:50:09.175Z,11.84
2023-04-25T18:52:42.015Z,11.81
2023-04-25T18:55:14.724Z,11.78
2023-04-25T18:57:47.397Z,11.74
2023-04-25T19:00:19.948Z,11.81
2023-04-25T19:02:52.471Z,11.78
2023-04-25T19:05:25.381Z,11.63
2023-04-25T19:07:58.928Z,11.58
2023-04-25T19:10:31.862Z,11.60
2023-04-25T19:13:04.287Z,11.56
2023-04-25T19:15:37.064Z,11.50
2023-04-25T19:18:10.174Z,11.44
2023-04-25T19:20:42.845Z,11.47
2023-04-25T19:23:15.645Z,11.38
2023-04-25T19:25:47.893Z,11.41
2023-04-25T19:28:20.519Z,11.36
2023-04-25T19:30:53.358Z,11.33
2023-04-25T19:33:25.745Z,11.30
2023-04-25T19:35:58.810Z,11.12
2023-04-25T19:38:31.842Z,11.29
2023-04-25T19:41:04.075Z,11.32
2023-04-25T19:43:36.563Z,11.38
2023-04-25T19:46:09.683Z,11.33
2023-04-25T19:48:42.241Z,11.34
2023-04-25T19:51:15.071Z,11.34
2023-04-25T19:53:47.709Z,11.36
2023-04-25T19:56:21.076Z,11.35
2023-04-25T19:58:53.947Z,11.42
2023-04-25T20:01:26.915Z,11.38
2023-04-25T20:03:59.636Z,11.36
2023-04-25T20:06:32.818Z,11.50
2023-04-25T20:09:06.785Z,11.56
2023-04-25T20:11:39.096Z,11.55
2023-04-25T20:14:11.892Z,11.43
2023-04-25T20:16:44.498Z,11.27
2023-04-25T20:19:17.661Z,11.23
2023-04-25T20:21:50.298Z,11.30
2023-04-25T20:24:22.812Z,11.18
2023-04-25T20:26:56.428Z,11.25
2023-04-25T20:29:29.572Z,11.36
2023-04-25T20:32:03.595Z,11.30
2023-04-25T20:34:36.740Z,11.38
2023-04-25T20:37:09.170Z,11.39
2023-04-25T20:39:41.883Z,11.45
2023-04-25T20:42:14.159Z,11.40
2023-04-25T20:44:46.542Z,11.37
2023-04-25T20:47:18.815Z,11.36
2023-04-25T20:49:51.413Z,11.42
2023-04-25T20:52:23.966Z,11.48
2023-04-25T20:54:56.391Z,11.43
2023-04-25T20:57:29.299Z,11.48
2023-04-25T21:00:01.823Z,11.53
2023-04-25T21:02:34.656Z,11.50
2023-04-25T21:05:08.442Z,11.49
2023-04-25T21:07:42.195Z,11.40
2023-04-25T21:10:15.989Z,11.40
2023-04-25T21:12:49.732Z,11.26
2023-04-25T21:15:24.965Z,11.32
2023-04-25T21:17:57.816Z,11.32
2023-04-25T21:20:30.399Z,11.35
2023-04-25T21:23:03.054Z,11.28
2023-04-25T21:25:35.865Z,11.28
2023-04-25T21:28:08.310Z,11.46
2023-04-25T21:30:41.361Z,11.33
2023-04-25T21:33:14.948Z,11.40
2023-04-25T21:35:47.718Z,11.28
2023-04-25T21:38:20.620Z,11.15
2023-04-25T21:40:53.103Z,11.13
2023-04-25T21:43:26.154Z,11.11
2023-04-25T21:46:21.669Z,11.26
2023-04-25T21:48:52.226Z,11.35
2023-04-25T21:51:25.722Z,11.36
2023-04-25T21:54:00.604Z,11.38
2023-04-25T21:56:33.112Z,11.37
2023-04-25T21:59:05.345Z,11.35
2023-04-25T22:01:38.764Z,11.41
2023-04-25T22:04:11.734Z,11.33
2023-04-25T22:06:43.925Z,11.31
2023-04-25T22:09:16.496Z,11.33
2023-04-25T22:11:53.303Z,11.33
2023-04-25T22:14:26.715Z,11.31
2023-04-25T22:16:59.261Z,11.27
2023-04-25T22:19:31.982Z,11.31
2023-04-25T22:22:04.121Z,11.24
2023-04-25T22:24:36.687Z,11.08
2023-04-25T22:27:10.261Z,11.02
2023-04-25T22:29:42.665Z,11.04
2023-04-25T22:32:15.482Z,11.03
2023-04-25T22:34:47.919Z,10.94
2023-04-25T22:37:20.770Z,10.76
2023-04-25T22:39:52.958Z,10.83
2023-04-25T22:42:26.061Z,10.84
2023-04-25T22:45:00.491Z,10.87
2023-04-25T22:47:32.908Z,10.69
2023-04-25T22:50:06.901Z,10.73
2023-04-25T22:52:39.013Z,10.77
2023-04-25T22:55:13.231Z,10.71
2023-04-25T22:57:45.844Z,10.77
2023-04-25T23:00:21.702Z,10.70
2023-04-25T23:02:55.134Z,10.69
2023-04-25T23:05:28.305Z,10.60
2023-04-25T23:08:00.601Z,10.67
2023-04-25T23:10:33.223Z,10.79
2023-04-25T23:13:06.314Z,10.80
2023-04-25T23:15:38.747Z,10.76
2023-04-25T23:18:11.618Z,10.85
2023-04-25T23:20:44.125Z,10.71
2023-04-25T23:23:17.097Z,10.58
2023-04-25T23:25:49.604Z,10.55
2023-04-25T23:28:22.145Z,10.48
2023-04-25T23:30:54.632Z,10.36
2023-04-25T23:33:27.038Z,10.33
2023-04-25T23:35:59.457Z,10.14
2023-04-25T23:38:31.650Z,9.90
2023-04-25T23:41:04.115Z,9.73
2023-04-25T23:43:37.001Z,9.84
2023-04-25T23:46:09.726Z,10.15
2023-04-25T23:48:42.582Z,9.88
2023-04-25T23:51:14.970Z,9.93
2023-04-25T23:53:47.614Z,9.84
2023-04-25T23:56:19.825Z,9.83
2023-04-25T23:58:52.130Z,9.97
